sensor_id;sensor_type;location;lat;lon;timestamp;pressure;altitude;pressure_sealevel;temperature;humidity
55187;BME280;55457;52.002;5.464;2024-03-17T00:00:21;102146.06;;;20.67;49.02
55187;BME280;55457;52.002;5.464;2024-03-17T00:02:46;102137.94;;;20.67;49.24
55187;BME280;55457;52.002;5.464;2024-03-17T00:05:12;102135.25;;;20.67;49.42
55187;BME280;55457;52.002;5.464;2024-03-17T00:07:39;102139.81;;;20.66;49.37
55187;BME280;55457;52.002;5.464;2024-03-17T00:10:04;102125.22;;;20.67;49.35
55187;BME280;55457;52.002;5.464;2024-03-17T00:12:30;102131.94;;;20.65;49.13
55187;BME280;55457;52.002;5.464;2024-03-17T00:14:55;102127.34;;;20.65;49.43
55187;BME280;55457;52.002;5.464;2024-03-17T00:17:20;102114.03;;;20.64;49.51
55187;BME280;55457;52.002;5.464;2024-03-17T00:19:46;102116.50;;;20.65;49.32
55187;BME280;55457;52.002;5.464;2024-03-17T00:22:12;102123.56;;;20.66;49.43
55187;BME280;55457;52.002;5.464;2024-03-17T00:24:40;102124.84;;;20.64;49.42
55187;BME280;55457;52.002;5.464;2024-03-17T00:27:05;102116.50;;;20.65;49.14
55187;BME280;55457;52.002;5.464;2024-03-17T00:29:31;102116.72;;;20.64;49.21
55187;BME280;55457;52.002;5.464;2024-03-17T00:31:56;102115.69;;;20.65;49.16
55187;BME280;55457;52.002;5.464;2024-03-17T00:34:22;102121.09;;;20.65;49.30
55187;BME280;55457;52.002;5.464;2024-03-17T00:36:47;102112.97;;;20.65;49.45
55187;BME280;55457;52.002;5.464;2024-03-17T00:39:13;102102.34;;;20.63;48.96
55187;BME280;55457;52.002;5.464;2024-03-17T00:41:39;102103.19;;;20.64;49.30
55187;BME280;55457;52.002;5.464;2024-03-17T00:44:04;102104.00;;;20.64;49.00
55187;BME280;55457;52.002;5.464;2024-03-17T00:46:31;102103.41;;;20.62;49.16
55187;BME280;55457;52.002;5.464;2024-03-17T00:48:58;102108.59;;;20.64;49.04
55187;BME280;55457;52.002;5.464;2024-03-17T00:51:25;102111.31;;;20.64;49.33
55187;BME280;55457;52.002;5.464;2024-03-17T00:53:50;102114.03;;;20.64;49.33
55187;BME280;55457;52.002;5.464;2024-03-17T00:56:15;102115.06;;;20.63;49.40
55187;BME280;55457;52.002;5.464;2024-03-17T00:58:41;102106.94;;;20.63;49.24
55187;BME280;55457;52.002;5.464;2024-03-17T01:01:06;102096.09;;;20.63;49.00
55187;BME280;55457;52.002;5.464;2024-03-17T01:03:32;102096.09;;;20.63;49.19
55187;BME280;55457;52.002;5.464;2024-03-17T01:05:57;102094.41;;;20.62;49.32
55187;BME280;55457;52.002;5.464;2024-03-17T01:08:22;102095.28;;;20.62;49.15
55187;BME280;55457;52.002;5.464;2024-03-17T01:10:48;102087.97;;;20.63;49.33
55187;BME280;55457;52.002;5.464;2024-03-17T01:13:17;102089.88;;;20.62;49.12
55187;BME280;55457;52.002;5.464;2024-03-17T01:15:43;102094.41;;;20.62;49.46
55187;BME280;55457;52.002;5.464;2024-03-17T01:18:09;102089.44;;;20.58;49.15
55187;BME280;55457;52.002;5.464;2024-03-17T01:20:35;102093.59;;;20.61;49.41
55187;BME280;55457;52.002;5.464;2024-03-17T01:23:01;102089.00;;;20.62;49.58
55187;BME280;55457;52.002;5.464;2024-03-17T01:25:27;102081.94;;;20.61;49.32
55187;BME280;55457;52.002;5.464;2024-03-17T01:27:53;102074.84;;;20.59;49.16
55187;BME280;55457;52.002;5.464;2024-03-17T01:30:18;102067.78;;;20.58;49.34
55187;BME280;55457;52.002;5.464;2024-03-17T01:32:45;102066.13;;;20.57;49.35
55187;BME280;55457;52.002;5.464;2024-03-17T01:35:10;102071.09;;;20.61;49.11
55187;BME280;55457;52.002;5.464;2024-03-17T01:37:37;102060.50;;;20.59;48.99
55187;BME280;55457;52.002;5.464;2024-03-17T01:40:02;102051.53;;;20.58;49.50
55187;BME280;55457;52.002;5.464;2024-03-17T01:42:30;102048.81;;;20.58;49.30
55187;BME280;55457;52.002;5.464;2024-03-17T01:44:55;102046.72;;;20.61;49.17
55187;BME280;55457;52.002;5.464;2024-03-17T01:47:20;102046.13;;;20.58;49.15
55187;BME280;55457;52.002;5.464;2024-03-17T01:49:47;102055.91;;;20.59;49.44
55187;BME280;55457;52.002;5.464;2024-03-17T01:52:14;102049.88;;;20.57;49.40
55187;BME280;55457;52.002;5.464;2024-03-17T01:54:39;102051.53;;;20.58;49.18
55187;BME280;55457;52.002;5.464;2024-03-17T01:57:05;102036.34;;;20.57;49.22
55187;BME280;55457;52.002;5.464;2024-03-17T01:59:30;102037.16;;;20.58;49.37
55187;BME280;55457;52.002;5.464;2024-03-17T02:01:56;102043.63;;;20.57;49.27
55187;BME280;55457;52.002;5.464;2024-03-17T02:04:22;102049.06;;;20.57;49.01
55187;BME280;55457;52.002;5.464;2024-03-17T02:06:47;102034.47;;;20.58;49.28
55187;BME280;55457;52.002;5.464;2024-03-17T02:09:13;102038.22;;;20.57;49.44
55187;BME280;55457;52.002;5.464;2024-03-17T02:11:38;102030.09;;;20.57;49.26
55187;BME280;55457;52.002;5.464;2024-03-17T02:14:03;102030.91;;;20.57;49.16
55187;BME280;55457;52.002;5.464;2024-03-17T02:16:31;102034.66;;;20.56;49.06
55187;BME280;55457;52.002;5.464;2024-03-17T02:18:57;102031.94;;;20.56;49.16
55187;BME280;55457;52.002;5.464;2024-03-17T02:21:23;102025.69;;;20.56;49.12
55187;BME280;55457;52.002;5.464;2024-03-17T02:23:50;102025.50;;;20.57;49.46
55187;BME280;55457;52.002;5.464;2024-03-17T02:26:16;102014.25;;;20.54;49.38
55187;BME280;55457;52.002;5.464;2024-03-17T02:28:42;102014.88;;;20.56;49.22
55187;BME280;55457;52.002;5.464;2024-03-17T02:31:09;102021.09;;;20.56;49.29
55187;BME280;55457;52.002;5.464;2024-03-17T02:33:35;102012.38;;;20.54;49.07
55187;BME280;55457;52.002;5.464;2024-03-17T02:36:01;102022.16;;;20.55;49.07
55187;BME280;55457;52.002;5.464;2024-03-17T02:38:29;102017.81;;;20.54;49.00
55187;BME280;55457;52.002;5.464;2024-03-17T02:41:13;102015.91;;;20.55;49.09
55187;BME280;55457;52.002;5.464;2024-03-17T02:43:38;102011.31;;;20.55;49.20
55187;BME280;55457;52.002;5.464;2024-03-17T02:46:04;102013.22;;;20.55;49.06
55187;BME280;55457;52.002;5.464;2024-03-17T02:48:30;102011.31;;;20.55;49.27
55187;BME280;55457;52.002;5.464;2024-03-17T02:50:56;102017.81;;;20.54;49.32
55187;BME280;55457;52.002;5.464;2024-03-17T02:53:21;102005.31;;;20.53;49.07
55187;BME280;55457;52.002;5.464;2024-03-17T02:55:47;102014.25;;;20.54;49.13
55187;BME280;55457;52.002;5.464;2024-03-17T02:58:12;102010.72;;;20.53;49.04
55187;BME280;55457;52.002;5.464;2024-03-17T03:00:37;102004.25;;;20.54;49.41
55187;BME280;55457;52.002;5.464;2024-03-17T03:03:04;102006.97;;;20.54;49.23
55187;BME280;55457;52.002;5.464;2024-03-17T03:05:29;102000.94;;;20.52;48.88
55187;BME280;55457;52.002;5.464;2024-03-17T03:07:55;101998.00;;;20.54;49.31
55187;BME280;55457;52.002;5.464;2024-03-17T03:10:20;101999.91;;;20.53;49.16
55187;BME280;55457;52.002;5.464;2024-03-17T03:12:46;101998.25;;;20.52;49.19
55187;BME280;55457;52.002;5.464;2024-03-17T03:15:11;101987.81;;;20.49;49.25
55187;BME280;55457;52.002;5.464;2024-03-17T03:17:38;102003.66;;;20.52;49.23
55187;BME280;55457;52.002;5.464;2024-03-17T03:20:03;102009.91;;;20.53;49.21
55187;BME280;55457;52.002;5.464;2024-03-17T03:22:31;102016.97;;;20.54;49.00
55187;BME280;55457;52.002;5.464;2024-03-17T03:24:56;102010.94;;;20.52;49.22
55187;BME280;55457;52.002;5.464;2024-03-17T03:27:21;102008.25;;;20.52;49.04
55187;BME280;55457;52.002;5.464;2024-03-17T03:29:47;102003.84;;;20.51;49.15
55187;BME280;55457;52.002;5.464;2024-03-17T03:32:13;101999.25;;;20.51;48.84
55187;BME280;55457;52.002;5.464;2024-03-17T03:34:38;101997.41;;;20.52;49.06
55187;BME280;55457;52.002;5.464;2024-03-17T03:37:04;101991.13;;;20.51;49.16
55187;BME280;55457;52.002;5.464;2024-03-17T03:39:32;101991.13;;;20.51;48.95
55187;BME280;55457;52.002;5.464;2024-03-17T03:41:57;101989.09;;;20.47;48.93
55187;BME280;55457;52.002;5.464;2024-03-17T03:44:23;101988.66;;;20.50;49.17
55187;BME280;55457;52.002;5.464;2024-03-17T03:46:48;101981.34;;;20.50;48.88
55187;BME280;55457;52.002;5.464;2024-03-17T03:49:14;101985.13;;;20.49;49.19
55187;BME280;55457;52.002;5.464;2024-03-17T03:51:39;101983.00;;;20.51;48.90
55187;BME280;55457;52.002;5.464;2024-03-17T03:54:05;101962.63;;;20.49;48.91
55187;BME280;55457;52.002;5.464;2024-03-17T03:56:31;101958.88;;;20.50;48.88
55187;BME280;55457;52.002;5.464;2024-03-17T03:58:57;101949.91;;;20.49;49.02
55187;BME280;55457;52.002;5.464;2024-03-17T04:01:22;101953.69;;;20.48;49.04
55187;BME280;55457;52.002;5.464;2024-03-17T04:03:48;101947.44;;;20.48;49.13
55187;BME280;55457;52.002;5.464;2024-03-17T04:06:15;101947.22;;;20.49;48.84
55187;BME280;55457;52.002;5.464;2024-03-17T04:08:41;101941.78;;;20.49;48.89
55187;BME280;55457;52.002;5.464;2024-03-17T04:11:07;101938.25;;;20.49;48.92
55187;BME280;55457;52.002;5.464;2024-03-17T04:13:33;101928.25;;;20.49;48.82
55187;BME280;55457;52.002;5.464;2024-03-17T04:16:05;101934.72;;;20.48;48.84
55187;BME280;55457;52.002;5.464;2024-03-17T04:18:31;101938.25;;;20.49;48.88
55187;BME280;55457;52.002;5.464;2024-03-17T04:21:01;101944.50;;;20.49;49.07
55187;BME280;55457;52.002;5.464;2024-03-17T04:23:27;101935.56;;;20.49;49.35
55187;BME280;55457;52.002;5.464;2024-03-17T04:25:53;101941.78;;;20.49;48.67
55187;BME280;55457;52.002;5.464;2024-03-17T04:28:18;101939.09;;;20.49;48.90
55187;BME280;55457;52.002;5.464;2024-03-17T04:30:44;101927.81;;;20.46;48.80
55187;BME280;55457;52.002;5.464;2024-03-17T04:33:11;101921.56;;;20.45;49.00
55187;BME280;55457;52.002;5.464;2024-03-17T04:35:37;101926.59;;;20.48;49.04
55187;BME280;55457;52.002;5.464;2024-03-17T04:38:04;101915.34;;;20.45;48.96
55187;BME280;55457;52.002;5.464;2024-03-17T04:40:30;101916.00;;;20.47;48.83
55187;BME280;55457;52.002;5.464;2024-03-17T04:42:56;101909.53;;;20.48;48.90
55187;BME280;55457;52.002;5.464;2024-03-17T04:45:21;101911.41;;;20.47;48.60
55187;BME280;55457;52.002;5.464;2024-03-17T04:47:46;101917.84;;;20.46;48.66
55187;BME280;55457;52.002;5.464;2024-03-17T04:50:12;101911.19;;;20.42;48.97
55187;BME280;55457;52.002;5.464;2024-03-17T04:52:38;101928.69;;;20.46;48.94
55187;BME280;55457;52.002;5.464;2024-03-17T04:55:03;101929.69;;;20.45;48.70
55187;BME280;55457;52.002;5.464;2024-03-17T04:57:29;101934.09;;;20.46;48.93
55187;BME280;55457;52.002;5.464;2024-03-17T04:59:55;101934.09;;;20.46;48.66
55187;BME280;55457;52.002;5.464;2024-03-17T05:02:20;101929.69;;;20.45;48.88
55187;BME280;55457;52.002;5.464;2024-03-17T05:04:46;101921.56;;;20.45;49.17
55187;BME280;55457;52.002;5.464;2024-03-17T05:07:12;101923.25;;;20.46;48.91
55187;BME280;55457;52.002;5.464;2024-03-17T05:09:37;101918.88;;;20.45;48.85
55187;BME280;55457;52.002;5.464;2024-03-17T05:12:02;101923.25;;;20.46;48.66
55187;BME280;55457;52.002;5.464;2024-03-17T05:14:28;101929.69;;;20.45;48.68
55187;BME280;55457;52.002;5.464;2024-03-17T05:16:53;101921.56;;;20.45;48.86
55187;BME280;55457;52.002;5.464;2024-03-17T05:19:18;101924.50;;;20.44;48.69
55187;BME280;55457;52.002;5.464;2024-03-17T05:21:47;101918.03;;;20.45;48.68
55187;BME280;55457;52.002;5.464;2024-03-17T05:24:12;101927.00;;;20.45;48.88
55187;BME280;55457;52.002;5.464;2024-03-17T05:26:38;101925.78;;;20.41;48.63
55187;BME280;55457;52.002;5.464;2024-03-17T05:29:03;101918.88;;;20.45;48.60
55187;BME280;55457;52.002;5.464;2024-03-17T05:31:29;101915.34;;;20.45;48.86
55187;BME280;55457;52.002;5.464;2024-03-17T05:33:54;101905.78;;;20.42;48.63
55187;BME280;55457;52.002;5.464;2024-03-17T05:36:20;101903.66;;;20.44;48.61
55187;BME280;55457;52.002;5.464;2024-03-17T05:38:46;101899.53;;;20.42;48.87
55187;BME280;55457;52.002;5.464;2024-03-17T05:41:12;101902.03;;;20.43;48.67
55187;BME280;55457;52.002;5.464;2024-03-17T05:43:38;101903.66;;;20.44;48.87
55187;BME280;55457;52.002;5.464;2024-03-17T05:46:05;101903.91;;;20.43;48.77
55187;BME280;55457;52.002;5.464;2024-03-17T05:48:38;101901.19;;;20.43;48.80
55187;BME280;55457;52.002;5.464;2024-03-17T05:51:05;101904.13;;;20.41;48.57
55187;BME280;55457;52.002;5.464;2024-03-17T05:53:33;101909.53;;;20.41;48.53
55187;BME280;55457;52.002;5.464;2024-03-17T05:55:59;101911.41;;;20.41;48.81
55187;BME280;55457;52.002;5.464;2024-03-17T05:58:25;101916.63;;;20.42;48.39
55187;BME280;55457;52.002;5.464;2024-03-17T06:00:50;101922.03;;;20.42;48.53
55187;BME280;55457;52.002;5.464;2024-03-17T06:03:16;101928.28;;;20.43;48.60
55187;BME280;55457;52.002;5.464;2024-03-17T06:05:43;101914.72;;;20.43;48.52
55187;BME280;55457;52.002;5.464;2024-03-17T06:08:09;101922.03;;;20.42;48.95
55187;BME280;55457;52.002;5.464;2024-03-17T06:10:37;101914.97;;;20.41;48.83
55187;BME280;55457;52.002;5.464;2024-03-17T06:13:03;101914.97;;;20.41;48.60
55187;BME280;55457;52.002;5.464;2024-03-17T06:15:29;101916.63;;;20.42;48.69
55187;BME280;55457;52.002;5.464;2024-03-17T06:17:55;101918.69;;;20.40;48.75
55187;BME280;55457;52.002;5.464;2024-03-17T06:20:22;101913.28;;;20.40;48.52
55187;BME280;55457;52.002;5.464;2024-03-17T06:22:48;101909.53;;;20.41;48.73
55187;BME280;55457;52.002;5.464;2024-03-17T06:25:14;101903.72;;;20.38;48.70
55187;BME280;55457;52.002;5.464;2024-03-17T06:27:39;101904.13;;;20.41;48.56
55187;BME280;55457;52.002;5.464;2024-03-17T06:30:05;101902.44;;;20.40;48.46
55187;BME280;55457;52.002;5.464;2024-03-17T06:32:32;101909.53;;;20.41;48.63
55187;BME280;55457;52.002;5.464;2024-03-17T06:34:58;101903.28;;;20.41;48.49
55187;BME280;55457;52.002;5.464;2024-03-17T06:37:24;101899.53;;;20.42;48.82
55187;BME280;55457;52.002;5.464;2024-03-17T06:39:49;101894.31;;;20.40;48.99
55187;BME280;55457;52.002;5.464;2024-03-17T06:42:15;101906.59;;;20.43;50.30
55187;BME280;55457;52.002;5.464;2024-03-17T06:44:40;101914.50;;;20.44;50.35
55187;BME280;55457;52.002;5.464;2024-03-17T06:47:06;101914.50;;;20.44;50.71
55187;BME280;55457;52.002;5.464;2024-03-17T06:49:31;101914.50;;;20.44;51.10
55187;BME280;55457;52.002;5.464;2024-03-17T06:51:56;101909.91;;;20.45;50.98
55187;BME280;55457;52.002;5.464;2024-03-17T06:54:22;101908.25;;;20.44;50.99
55187;BME280;55457;52.002;5.464;2024-03-17T06:56:47;101905.78;;;20.42;50.84
55187;BME280;55457;52.002;5.464;2024-03-17T06:59:12;101905.78;;;20.42;50.75
55187;BME280;55457;52.002;5.464;2024-03-17T07:01:38;101907.66;;;20.42;50.42
55187;BME280;55457;52.002;5.464;2024-03-17T07:04:03;101906.19;;;20.39;50.40
55187;BME280;55457;52.002;5.464;2024-03-17T07:06:28;101919.75;;;20.39;50.67
55187;BME280;55457;52.002;5.464;2024-03-17T07:08:54;101920.78;;;20.38;50.55
55187;BME280;55457;52.002;5.464;2024-03-17T07:11:20;101918.91;;;20.39;50.37
55187;BME280;55457;52.002;5.464;2024-03-17T07:13:48;101915.38;;;20.38;50.19
55187;BME280;55457;52.002;5.464;2024-03-17T07:16:16;101917.03;;;20.39;49.97
55187;BME280;55457;52.002;5.464;2024-03-17T07:18:43;101918.09;;;20.38;49.95
55187;BME280;55457;52.002;5.464;2024-03-17T07:21:10;101917.03;;;20.39;49.87
55187;BME280;55457;52.002;5.464;2024-03-17T07:23:36;101915.38;;;20.38;49.95
55187;BME280;55457;52.002;5.464;2024-03-17T07:26:02;101919.97;;;20.38;49.71
55187;BME280;55457;52.002;5.464;2024-03-17T07:28:30;101917.25;;;20.38;49.55
55187;BME280;55457;52.002;5.464;2024-03-17T07:30:57;101897.25;;;20.39;49.71
55187;BME280;55457;52.002;5.464;2024-03-17T07:33:23;101898.53;;;20.36;49.63
55187;BME280;55457;52.002;5.464;2024-03-17T07:35:55;101904.56;;;20.38;49.66
55187;BME280;55457;52.002;5.464;2024-03-17T07:38:24;101905.38;;;20.39;49.52
55187;BME280;55457;52.002;5.464;2024-03-17T07:41:02;101904.78;;;20.37;49.67
55187;BME280;55457;52.002;5.464;2024-03-17T07:43:29;101907.25;;;20.38;49.56
55187;BME280;55457;52.002;5.464;2024-03-17T07:48:29;101907.25;;;20.38;49.24
55187;BME280;55457;52.002;5.464;2024-03-17T07:51:00;101897.03;;;20.40;49.41
55187;BME280;55457;52.002;5.464;2024-03-17T07:53:32;101895.38;;;20.39;49.26
55187;BME280;55457;52.002;5.464;2024-03-17T07:55:58;101897.03;;;20.40;49.13
55187;BME280;55457;52.002;5.464;2024-03-17T07:58:25;101895.38;;;20.39;49.01
55187;BME280;55457;52.002;5.464;2024-03-17T08:00:51;101891.63;;;20.40;49.19
55187;BME280;55457;52.002;5.464;2024-03-17T08:03:17;101890.78;;;20.40;49.02
55187;BME280;55457;52.002;5.464;2024-03-17T08:05:43;101900.78;;;20.39;49.11
55187;BME280;55457;52.002;5.464;2024-03-17T08:08:08;101909.75;;;20.40;49.14
55187;BME280;55457;52.002;5.464;2024-03-17T08:10:37;101917.03;;;20.39;49.14
55187;BME280;55457;52.002;5.464;2024-03-17T08:13:03;101902.66;;;20.39;49.11
55187;BME280;55457;52.002;5.464;2024-03-17T08:15:30;101894.53;;;20.39;49.04
55187;BME280;55457;52.002;5.464;2024-03-17T08:17:55;101895.59;;;20.38;48.93
55187;BME280;55457;52.002;5.464;2024-03-17T08:20:21;101897.47;;;20.37;48.87
55187;BME280;55457;52.002;5.464;2024-03-17T08:22:46;101894.13;;;20.35;49.03
55187;BME280;55457;52.002;5.464;2024-03-17T08:25:11;101891.25;;;20.37;49.01
55187;BME280;55457;52.002;5.464;2024-03-17T08:27:36;101895.59;;;20.38;49.07
55187;BME280;55457;52.002;5.464;2024-03-17T08:30:02;101895.81;;;20.36;49.01
55187;BME280;55457;52.002;5.464;2024-03-17T08:32:28;101891.25;;;20.37;48.85
55187;BME280;55457;52.002;5.464;2024-03-17T08:34:54;101898.53;;;20.36;48.72
55187;BME280;55457;52.002;5.464;2024-03-17T08:37:20;101897.69;;;20.36;48.92
55187;BME280;55457;52.002;5.464;2024-03-17T08:39:46;101897.47;;;20.37;48.96
55187;BME280;55457;52.002;5.464;2024-03-17T08:42:11;101897.47;;;20.37;48.80
55187;BME280;55457;52.002;5.464;2024-03-17T08:44:37;101897.47;;;20.37;48.88
55187;BME280;55457;52.002;5.464;2024-03-17T08:47:02;101902.91;;;20.37;48.85
55187;BME280;55457;52.002;5.464;2024-03-17T08:49:27;101895.81;;;20.36;48.97
55187;BME280;55457;52.002;5.464;2024-03-17T08:51:53;101897.47;;;20.37;48.91
55187;BME280;55457;52.002;5.464;2024-03-17T08:54:18;101885.81;;;20.37;49.00
55187;BME280;55457;52.002;5.464;2024-03-17T08:56:43;101887.47;;;20.38;48.68
55187;BME280;55457;52.002;5.464;2024-03-17T08:59:09;101887.47;;;20.38;48.64
55187;BME280;55457;52.002;5.464;2024-03-17T09:01:37;101892.88;;;20.38;48.86
55187;BME280;55457;52.002;5.464;2024-03-17T09:04:02;101882.06;;;20.38;48.76
55187;BME280;55457;52.002;5.464;2024-03-17T09:06:28;101889.97;;;20.39;48.65
55187;BME280;55457;52.002;5.464;2024-03-17T09:08:55;101889.97;;;20.39;48.82
55187;BME280;55457;52.002;5.464;2024-03-17T09:11:20;101884.53;;;20.39;48.78
55187;BME280;55457;52.002;5.464;2024-03-17T09:13:50;101885.38;;;20.40;48.81
55187;BME280;55457;52.002;5.464;2024-03-17T09:16:15;101887.03;;;20.41;48.62
55187;BME280;55457;52.002;5.464;2024-03-17T09:18:43;101887.03;;;20.41;48.62
55187;BME280;55457;52.002;5.464;2024-03-17T09:21:09;101877.25;;;20.40;48.47
55187;BME280;55457;52.002;5.464;2024-03-17T09:23:35;101879.53;;;20.43;48.90
55187;BME280;55457;52.002;5.464;2024-03-17T09:26:03;101882.00;;;20.44;49.06
55187;BME280;55457;52.002;5.464;2024-03-17T09:28:30;101885.78;;;20.43;49.09
55187;BME280;55457;52.002;5.464;2024-03-17T09:30:56;101884.72;;;20.44;49.27
55187;BME280;55457;52.002;5.464;2024-03-17T09:33:23;101887.44;;;20.44;49.03
55187;BME280;55457;52.002;5.464;2024-03-17T09:36:05;101880.34;;;20.43;49.04
55187;BME280;55457;52.002;5.464;2024-03-17T09:38:32;101882.84;;;20.45;49.04
55187;BME280;55457;52.002;5.464;2024-03-17T09:40:58;101872.84;;;20.45;49.09
55187;BME280;55457;52.002;5.464;2024-03-17T09:43:27;101875.38;;;20.47;48.77
55187;BME280;55457;52.002;5.464;2024-03-17T09:45:53;101875.16;;;20.48;48.78
55187;BME280;55457;52.002;5.464;2024-03-17T09:48:23;101868.69;;;20.49;48.67
55187;BME280;55457;52.002;5.464;2024-03-17T09:50:50;101863.25;;;20.49;48.92
55187;BME280;55457;52.002;5.464;2024-03-17T09:53:32;101861.38;;;20.50;48.68
55187;BME280;55457;52.002;5.464;2024-03-17T09:56:21;101859.50;;;20.50;48.68
55187;BME280;55457;52.002;5.464;2024-03-17T09:58:47;101857.41;;;20.52;48.54
55187;BME280;55457;52.002;5.464;2024-03-17T10:01:13;101850.78;;;20.48;48.77
55187;BME280;55457;52.002;5.464;2024-03-17T10:03:49;101854.91;;;20.51;48.62
55187;BME280;55457;52.002;5.464;2024-03-17T10:06:23;101859.50;;;20.50;48.69
55187;BME280;55457;52.002;5.464;2024-03-17T10:08:58;101863.25;;;20.49;48.64
55187;BME280;55457;52.002;5.464;2024-03-17T10:11:32;101865.75;;;20.51;48.54
55187;BME280;55457;52.002;5.464;2024-03-17T10:14:00;101864.91;;;20.50;48.72
55187;BME280;55457;52.002;5.464;2024-03-17T10:16:26;101859.50;;;20.50;48.60
55187;BME280;55457;52.002;5.464;2024-03-17T10:21:43;101854.88;;;20.57;48.51
55187;BME280;55457;52.002;5.464;2024-03-17T10:24:14;101849.00;;;20.61;48.42
55187;BME280;55457;52.002;5.464;2024-03-17T10:26:48;101848.13;;;20.67;48.26
55187;BME280;55457;52.002;5.464;2024-03-17T10:29:26;101843.91;;;20.71;48.48
55187;BME280;55457;52.002;5.464;2024-03-17T10:31:56;101849.50;;;20.76;48.65
55187;BME280;55457;52.002;5.464;2024-03-17T10:34:23;101846.78;;;20.76;48.79
55187;BME280;55457;52.002;5.464;2024-03-17T10:36:52;101845.75;;;20.77;48.83
55187;BME280;55457;52.002;5.464;2024-03-17T10:39:30;101836.78;;;20.76;48.54
55187;BME280;55457;52.002;5.464;2024-03-17T10:42:03;101839.13;;;20.73;48.61
55187;BME280;55457;52.002;5.464;2024-03-17T10:44:33;101838.06;;;20.74;48.54
55187;BME280;55457;52.002;5.464;2024-03-17T10:47:00;101838.91;;;20.74;48.55
55187;BME280;55457;52.002;5.464;2024-03-17T10:49:35;101830.53;;;20.76;48.26
55187;BME280;55457;52.002;5.464;2024-03-17T10:52:03;101828.47;;;20.78;48.66
55187;BME280;55457;52.002;5.464;2024-03-17T10:54:34;101833.41;;;20.81;48.57
55187;BME280;55457;52.002;5.464;2024-03-17T10:59:38;101822.91;;;20.91;48.09
55187;BME280;55457;52.002;5.464;2024-03-17T11:02:20;101819.91;;;20.99;48.08
55187;BME280;55457;52.002;5.464;2024-03-17T11:04:51;101817.19;;;20.99;48.29
55187;BME280;55457;52.002;5.464;2024-03-17T11:07:18;101822.78;;;21.04;48.39
55187;BME280;55457;52.002;5.464;2024-03-17T11:09:45;101815.25;;;21.06;48.24
55187;BME280;55457;52.002;5.464;2024-03-17T11:17:55;101825.19;;;20.94;48.36
55187;BME280;55457;52.002;5.464;2024-03-17T11:20:43;101827.72;;;20.89;48.22
55187;BME280;55457;52.002;5.464;2024-03-17T11:23:30;101824.63;;;20.85;48.13
55187;BME280;55457;52.002;5.464;2024-03-17T11:25:56;101818.38;;;20.85;48.48
55187;BME280;55457;52.002;5.464;2024-03-17T11:31:35;101821.75;;;20.80;48.20
55187;BME280;55457;52.002;5.464;2024-03-17T11:34:03;101818.22;;;20.80;48.04
55187;BME280;55457;52.002;5.464;2024-03-17T11:36:30;101818.22;;;20.80;48.02
55187;BME280;55457;52.002;5.464;2024-03-17T11:39:10;101814.69;;;20.79;48.01
55187;BME280;55457;52.002;5.464;2024-03-17T11:41:45;101817.63;;;20.78;48.08
55187;BME280;55457;52.002;5.464;2024-03-17T11:47:01;101817.47;;;20.73;48.17
55187;BME280;55457;52.002;5.464;2024-03-17T11:49:39;101809.34;;;20.73;48.18
55187;BME280;55457;52.002;5.464;2024-03-17T11:52:12;101812.03;;;20.73;48.34
55187;BME280;55457;52.002;5.464;2024-03-17T11:54:40;101808.47;;;20.72;48.27
55187;BME280;55457;52.002;5.464;2024-03-17T11:57:07;101806.63;;;20.73;48.22
55187;BME280;55457;52.002;5.464;2024-03-17T11:59:33;101807.66;;;20.72;48.04
55187;BME280;55457;52.002;5.464;2024-03-17T12:01:59;101803.91;;;20.73;48.31
55187;BME280;55457;52.002;5.464;2024-03-17T12:04:25;101807.44;;;20.73;47.96
55187;BME280;55457;52.002;5.464;2024-03-17T12:06:52;101798.50;;;20.73;47.99
55187;BME280;55457;52.002;5.464;2024-03-17T12:11:43;101797.44;;;20.74;48.14
55187;BME280;55457;52.002;5.464;2024-03-17T12:14:19;101786.59;;;20.74;48.27
55187;BME280;55457;52.002;5.464;2024-03-17T12:16:59;101789.31;;;20.74;48.27
55187;BME280;55457;52.002;5.464;2024-03-17T12:19:25;101780.34;;;20.73;48.34
55187;BME280;55457;52.002;5.464;2024-03-17T12:21:52;101780.34;;;20.73;47.94
55187;BME280;55457;52.002;5.464;2024-03-17T12:24:20;101775.78;;;20.74;48.11
55187;BME280;55457;52.002;5.464;2024-03-17T12:26:47;101772.44;;;20.72;48.26
55187;BME280;55457;52.002;5.464;2024-03-17T12:29:35;101772.22;;;20.73;48.14
55187;BME280;55457;52.002;5.464;2024-03-17T12:32:19;101768.47;;;20.74;48.14
55187;BME280;55457;52.002;5.464;2024-03-17T12:34:46;101766.00;;;20.73;48.12
55187;BME280;55457;52.002;5.464;2024-03-17T12:37:22;101764.09;;;20.73;48.03
55187;BME280;55457;52.002;5.464;2024-03-17T12:39:48;101758.91;;;20.72;48.23
55187;BME280;55457;52.002;5.464;2024-03-17T12:42:15;101766.00;;;20.73;48.01
55187;BME280;55457;52.002;5.464;2024-03-17T12:45:01;101753.47;;;20.72;47.99
55187;BME280;55457;52.002;5.464;2024-03-17T12:47:28;101756.19;;;20.72;48.04
55187;BME280;55457;52.002;5.464;2024-03-17T12:49:54;101748.06;;;20.72;47.99
55187;BME280;55457;52.002;5.464;2024-03-17T12:52:24;101745.59;;;20.70;48.07
55187;BME280;55457;52.002;5.464;2024-03-17T12:55:07;101733.91;;;20.70;48.01
55187;BME280;55457;52.002;5.464;2024-03-17T12:58:11;101733.91;;;20.70;48.28
55187;BME280;55457;52.002;5.464;2024-03-17T13:03:29;101733.31;;;20.68;48.07
55187;BME280;55457;52.002;5.464;2024-03-17T13:05:56;101739.34;;;20.70;47.99
55187;BME280;55457;52.002;5.464;2024-03-17T13:08:22;101732.28;;;20.69;48.22
55187;BME280;55457;52.002;5.464;2024-03-17T13:10:47;101730.16;;;20.71;48.03
55187;BME280;55457;52.002;5.464;2024-03-17T13:13:13;101728.50;;;20.70;48.44
55187;BME280;55457;52.002;5.464;2024-03-17T13:15:41;101720.59;;;20.68;48.33